Williamsville, Virginia
Current Conditions -  °F | °C
As of 5:55 AM on Friday 28 Nov 2014 (Local Time) from KHSP Reporting Station
Light Snow Light Snow  
Wind Chill:   Ceiling: 1700
Heat Index: 19°   Visibility: 7mi
Dew Point: 18°   Wind: 12mph
Humidity: 96%   Direction: 310°NW
Pressure: 30.08"   Gusts: 20mph
Location:  38.2°N, 79.57°W
Report Text: KHSP 281055Z AUTO 31010G17KT 270V330 7SM -SN BKN017 OVC025 M07/M08 A3008 RMK AO2 T10751080
Loading
Personal Weather Stations






























Interactive Weather Map New forecast layout! Learn more

10-Day Weather Forecast

Advertisements
Track Severe Weather on mobile